createdAt,value
2019-04-21T00:04:40.710Z,11.38
2019-04-21T00:07:36.302Z,11.39
2019-04-21T00:10:47.928Z,11.39
2019-04-21T00:13:20.503Z,11.33
2019-04-21T00:15:48.665Z,11.30
2019-04-21T00:18:47.701Z,11.32
2019-04-21T00:21:24.418Z,11.17
2019-04-21T00:24:23.907Z,11.17
2019-04-21T00:30:26.958Z,11.19
2019-04-21T00:32:58.812Z,11.22
2019-04-21T00:35:25.552Z,11.27
2019-04-21T00:38:18.378Z,11.20
2019-04-21T00:40:56.647Z,11.12
2019-04-21T00:43:28.005Z,11.09
2019-04-21T00:45:57.568Z,11.13
2019-04-21T00:48:48.620Z,11.11
2019-04-21T00:51:33.367Z,10.79
2019-04-21T00:54:31.338Z,10.71
2019-04-21T00:56:56.231Z,11.05
2019-04-21T01:02:56.481Z,10.79
2019-04-21T01:06:11.515Z,10.79
2019-04-21T01:08:46.834Z,10.88
2019-04-21T01:11:26.310Z,10.72
2019-04-21T01:14:07.051Z,10.55
2019-04-21T01:16:39.322Z,10.45
2019-04-21T01:19:17.344Z,10.50
2019-04-21T01:21:38.669Z,10.36
2019-04-21T01:24:18.276Z,10.36
2019-04-21T01:27:06.379Z,10.11
2019-04-21T01:29:54.002Z,10.22
2019-04-21T01:32:35.903Z,10.23
2019-04-21T01:35:08.720Z,10.13
2019-04-21T01:37:52.792Z,10.03
2019-04-21T01:43:27.850Z,9.95
2019-04-21T01:46:25.660Z,9.79
2019-04-21T01:49:04.620Z,9.66
2019-04-21T01:55:00.637Z,9.63
2019-04-21T01:57:51.232Z,9.66
2019-04-21T02:00:38.963Z,9.64
2019-04-21T02:03:28.597Z,9.83
2019-04-21T02:06:13.753Z,9.78
2019-04-21T02:08:37.372Z,9.55
2019-04-21T02:11:18.847Z,9.55
2019-04-21T02:14:05.930Z,9.43
2019-04-21T02:16:34.284Z,9.33
2019-04-21T02:19:08.450Z,9.23
2019-04-21T02:21:38.259Z,9.30
2019-04-21T02:24:33.336Z,9.32
2019-04-21T02:26:59.256Z,9.18
2019-04-21T02:29:55.900Z,9.17
2019-04-21T02:32:24.737Z,9.14
2019-04-21T02:35:02.339Z,9.14
2019-04-21T02:40:14.666Z,9.18
2019-04-21T02:42:59.499Z,9.19
2019-04-21T02:45:44.877Z,9.14
2019-04-21T02:56:58.142Z,8.83
2019-04-21T03:08:15.170Z,9.00
2019-04-21T03:13:43.027Z,8.92
2019-04-21T03:19:04.891Z,8.94
2019-04-21T03:21:38.654Z,8.72
2019-04-21T03:24:24.453Z,8.66
2019-04-21T03:27:34.884Z,8.71
2019-04-21T03:30:03.498Z,8.62
2019-04-21T03:35:54.304Z,8.48
2019-04-21T03:38:05.841Z,8.37
2019-04-21T03:40:26.098Z,8.22
2019-04-21T03:43:04.921Z,8.16
2019-04-21T03:51:40.071Z,8.18
2019-04-21T03:54:00.546Z,8.03
2019-04-21T03:59:03.966Z,8.06
2019-04-21T04:02:18.567Z,8.08
2019-04-21T04:05:08.940Z,7.89
2019-04-21T04:07:59.074Z,7.90
2019-04-21T04:10:39.159Z,7.78
2019-04-21T04:13:05.017Z,7.77
2019-04-21T04:15:49.021Z,7.85
2019-04-21T04:18:39.389Z,7.87
2019-04-21T04:21:02.686Z,7.76
2019-04-21T04:23:45.154Z,7.83
2019-04-21T04:26:22.879Z,7.80
2019-04-21T04:28:54.267Z,7.96
2019-04-21T04:31:41.556Z,7.80
2019-04-21T04:37:03.466Z,7.84
2019-04-21T04:45:08.154Z,7.79
2019-04-21T04:47:51.219Z,7.88
2019-04-21T04:53:40.406Z,7.82
2019-04-21T04:56:00.070Z,7.84
2019-04-21T05:04:20.539Z,8.01
2019-04-21T05:11:55.518Z,8.13
2019-04-21T05:20:13.268Z,8.66
2019-04-21T05:22:58.284Z,8.85
2019-04-21T05:25:49.968Z,8.79
2019-04-21T05:28:11.550Z,8.88
2019-04-21T05:31:33.854Z,8.96
2019-04-21T05:34:26.868Z,9.07
2019-04-21T05:42:36.674Z,9.55
2019-04-21T05:45:50.128Z,9.59
2019-04-21T05:48:39.489Z,9.79
2019-04-21T05:51:14.684Z,10.02
2019-04-21T05:54:04.916Z,10.15
2019-04-21T05:56:33.584Z,10.30
2019-04-21T05:59:08.918Z,10.58
2019-04-21T06:02:06.107Z,10.68
2019-04-21T06:04:34.792Z,10.87
2019-04-21T06:07:58.789Z,11.01
2019-04-21T06:10:27.432Z,11.07
2019-04-21T06:12:59.897Z,11.05
2019-04-21T06:18:47.049Z,11.34
2019-04-21T06:21:25.117Z,11.46
2019-04-21T06:23:57.377Z,11.44
2019-04-21T06:29:29.781Z,11.60
2019-04-21T06:33:15.353Z,11.98
2019-04-21T06:35:04.332Z,12.01
2019-04-21T06:37:47.094Z,12.05
2019-04-21T06:40:38.646Z,12.15
2019-04-21T06:43:28.157Z,12.23
2019-04-21T06:46:08.971Z,12.34
2019-04-21T06:48:32.951Z,12.51
2019-04-21T06:51:13.711Z,12.64
2019-04-21T06:53:48.656Z,12.67
2019-04-21T06:56:23.532Z,12.97
2019-04-21T06:59:13.518Z,13.00
2019-04-21T07:02:23.423Z,12.99
2019-04-21T07:04:39.143Z,12.99
2019-04-21T07:07:25.594Z,13.38
2019-04-21T07:10:21.014Z,13.34
2019-04-21T07:12:59.019Z,13.45
2019-04-21T07:15:43.545Z,13.58
2019-04-21T07:21:30.057Z,13.80
2019-04-21T07:24:21.806Z,14.06
2019-04-21T07:26:58.723Z,14.23
2019-04-21T07:29:34.753Z,14.31
2019-04-21T07:32:09.404Z,14.52
2019-04-21T07:34:44.867Z,14.53
2019-04-21T07:37:17.424Z,14.51
2019-04-21T07:39:54.861Z,14.88
2019-04-21T07:42:36.954Z,14.83
2019-04-21T07:45:08.777Z,14.83
2019-04-21T07:48:08.229Z,14.80
2019-04-21T07:56:07.254Z,15.08
2019-04-21T07:59:18.890Z,15.28
2019-04-21T08:02:06.912Z,15.37
2019-04-21T08:04:52.681Z,15.55
2019-04-21T08:07:15.017Z,15.58
2019-04-21T08:09:46.457Z,15.85
2019-04-21T08:12:22.966Z,15.51
2019-04-21T08:15:13.971Z,15.70
2019-04-21T08:17:41.347Z,15.84
2019-04-21T08:20:18.793Z,16.12
2019-04-21T08:23:13.155Z,16.24
2019-04-21T08:25:45.920Z,16.50
2019-04-21T08:28:17.852Z,16.58
2019-04-21T08:31:01.282Z,16.66
2019-04-21T08:33:51.417Z,16.74
2019-04-21T08:38:58.289Z,17.19
2019-04-21T08:41:31.300Z,17.29
2019-04-21T08:44:18.448Z,17.43
2019-04-21T08:46:48.989Z,17.54
2019-04-21T08:49:20.616Z,17.27
2019-04-21T08:52:21.563Z,17.46
2019-04-21T08:55:20.310Z,17.36
2019-04-21T08:58:15.751Z,17.28
2019-04-21T09:01:08.763Z,17.87
2019-04-21T09:04:04.245Z,18.06
2019-04-21T09:09:45.676Z,18.24
2019-04-21T09:12:19.623Z,18.42
2019-04-21T09:14:48.810Z,18.49
2019-04-21T09:17:23.666Z,18.87
2019-04-21T09:22:41.224Z,18.93
2019-04-21T09:26:05.191Z,19.15
2019-04-21T09:28:35.537Z,19.64
2019-04-21T09:31:01.683Z,19.63
2019-04-21T09:33:45.212Z,19.93
2019-04-21T09:36:19.565Z,19.52
2019-04-21T09:39:00.060Z,19.97
2019-04-21T09:41:29.562Z,19.72
2019-04-21T09:44:09.921Z,19.95
2019-04-21T09:46:50.606Z,20.21
2019-04-21T09:49:25.353Z,20.34
2019-04-21T09:51:57.760Z,20.34
2019-04-21T09:54:37.051Z,20.47
2019-04-21T09:57:20.553Z,20.73
2019-04-21T10:00:00.083Z,21.19
2019-04-21T10:02:34.225Z,21.41
2019-04-21T10:05:02.079Z,21.68
2019-04-21T10:07:35.618Z,21.78
2019-04-21T10:10:22.945Z,21.30
2019-04-21T10:13:02.953Z,21.56
2019-04-21T10:18:48.169Z,22.32
2019-04-21T10:21:38.235Z,22.47
2019-04-21T10:24:26.970Z,22.66
2019-04-21T10:26:56.258Z,22.70
2019-04-21T10:29:29.379Z,23.10
2019-04-21T10:32:28.227Z,22.62
2019-04-21T10:34:57.582Z,22.64
2019-04-21T10:37:40.064Z,22.74
2019-04-21T10:40:43.495Z,22.80
2019-04-21T10:45:51.183Z,23.16
2019-04-21T10:48:21.012Z,23.49
2019-04-21T10:51:01.133Z,23.59
2019-04-21T10:56:41.511Z,23.32
2019-04-21T10:59:14.292Z,23.59
2019-04-21T11:01:50.454Z,23.80
2019-04-21T11:07:55.169Z,23.64
2019-04-21T11:10:20.103Z,23.77
2019-04-21T11:12:56.716Z,23.65
2019-04-21T11:15:32.790Z,23.51
2019-04-21T11:18:08.359Z,23.39
2019-04-21T11:20:37.684Z,23.50
2019-04-21T11:23:08.016Z,23.54
2019-04-21T11:25:44.013Z,23.81
2019-04-21T11:28:20.701Z,23.79
2019-04-21T11:30:57.164Z,23.76
2019-04-21T11:33:33.461Z,23.73
2019-04-21T11:36:03.589Z,23.66
2019-04-21T11:39:22.248Z,23.49
2019-04-21T11:41:48.172Z,23.47
2019-04-21T11:44:18.405Z,23.22
2019-04-21T11:46:58.371Z,23.19
2019-04-21T11:49:34.846Z,23.21
2019-04-21T11:52:11.316Z,23.40
2019-04-21T11:54:51.083Z,23.56
2019-04-21T11:57:27.517Z,23.49
2019-04-21T12:03:06.343Z,23.47
2019-04-21T12:05:37.206Z,23.50
2019-04-21T12:08:23.036Z,23.51
2019-04-21T12:10:53.523Z,23.57
2019-04-21T12:13:30.065Z,23.47
2019-04-21T12:16:05.591Z,23.39
2019-04-21T12:18:34.930Z,23.58
2019-04-21T12:21:05.278Z,23.61
2019-04-21T12:23:54.455Z,23.81
2019-04-21T12:26:24.245Z,23.84
2019-04-21T12:28:53.685Z,23.67
2019-04-21T12:34:19.500Z,23.59
2019-04-21T12:36:55.038Z,23.73
2019-04-21T12:39:25.078Z,23.76
2019-04-21T12:42:14.551Z,23.62
2019-04-21T12:44:43.927Z,23.57
2019-04-21T12:47:14.158Z,23.63
2019-04-21T12:52:31.551Z,23.68
2019-04-21T12:58:09.346Z,23.93
2019-04-21T13:00:38.878Z,23.74
2019-04-21T13:03:15.893Z,23.78
2019-04-21T13:05:51.896Z,23.73
2019-04-21T13:08:21.757Z,24.04
2019-04-21T13:11:11.560Z,24.07
2019-04-21T13:13:48.152Z,23.86
2019-04-21T13:16:25.338Z,24.07
2019-04-21T13:19:00.098Z,24.28
2019-04-21T13:21:29.910Z,24.20
2019-04-21T13:24:09.763Z,24.30
2019-04-21T13:26:45.538Z,24.33
2019-04-21T13:29:30.261Z,24.32
2019-04-21T13:32:06.854Z,24.27
2019-04-21T13:34:42.232Z,24.10
2019-04-21T13:37:11.970Z,24.17
2019-04-21T13:40:43.313Z,24.26
2019-04-21T13:45:53.965Z,24.38
2019-04-21T13:48:28.773Z,24.38
2019-04-21T13:50:59.451Z,24.11
2019-04-21T13:53:49.439Z,24.37
2019-04-21T13:56:24.866Z,24.00
2019-04-21T13:58:54.190Z,24.35
2019-04-21T14:01:23.582Z,24.18
2019-04-21T14:04:13.545Z,24.43
2019-04-21T14:07:02.530Z,24.31
2019-04-21T14:09:40.271Z,24.42
2019-04-21T14:12:23.362Z,24.40
2019-04-21T14:15:00.005Z,24.41
2019-04-21T14:17:35.073Z,24.61
2019-04-21T14:23:22.419Z,24.44
2019-04-21T14:25:48.305Z,24.51
2019-04-21T14:28:17.872Z,24.71
2019-04-21T14:30:48.270Z,24.67
2019-04-21T14:33:23.872Z,24.64
2019-04-21T14:38:56.620Z,24.56
2019-04-21T14:41:32.553Z,24.63
2019-04-21T14:44:09.082Z,24.72
2019-04-21T14:47:05.025Z,24.69
2019-04-21T14:49:53.494Z,24.63
2019-04-21T14:57:59.125Z,24.94
2019-04-21T15:01:08.424Z,24.98
2019-04-21T15:03:37.743Z,24.97
2019-04-21T15:06:19.527Z,24.86
2019-04-21T15:08:49.236Z,24.78
2019-04-21T15:11:26.262Z,24.80
2019-04-21T15:14:02.065Z,25.03
2019-04-21T15:16:38.690Z,25.18
2019-04-21T15:19:18.020Z,25.17
2019-04-21T15:22:08.084Z,25.01
2019-04-21T15:24:58.344Z,25.44
2019-04-21T15:27:36.939Z,25.56
2019-04-21T15:30:54.419Z,25.72
2019-04-21T15:33:30.633Z,25.61
2019-04-21T15:36:46.325Z,25.55
2019-04-21T15:39:21.528Z,25.15
2019-04-21T15:42:01.157Z,25.14
2019-04-21T15:44:30.585Z,25.23
2019-04-21T15:46:59.868Z,25.51
2019-04-21T15:50:12.813Z,25.26
2019-04-21T15:56:13.128Z,24.98
2019-04-21T15:59:01.537Z,25.49
2019-04-21T16:01:50.655Z,25.41
2019-04-21T16:04:39.109Z,25.08
2019-04-21T16:07:08.450Z,24.92
2019-04-21T16:09:37.780Z,24.82
2019-04-21T16:12:07.407Z,24.72
2019-04-21T16:14:58.699Z,24.54
2019-04-21T16:17:35.112Z,24.33
2019-04-21T16:23:30.815Z,24.26
2019-04-21T16:26:00.071Z,24.14
2019-04-21T16:28:29.460Z,24.25
2019-04-21T16:30:58.797Z,24.34
2019-04-21T16:33:29.293Z,24.36
2019-04-21T16:36:45.676Z,24.46
2019-04-21T16:39:21.358Z,24.49
2019-04-21T16:41:56.311Z,24.48
2019-04-21T16:44:52.682Z,24.42
2019-04-21T16:47:32.450Z,24.50
2019-04-21T16:53:50.302Z,24.29
2019-04-21T16:59:19.000Z,24.22
2019-04-21T17:01:48.910Z,24.13
2019-04-21T17:04:28.828Z,24.33
2019-04-21T17:06:58.948Z,24.26
2019-04-21T17:09:48.606Z,23.65
2019-04-21T17:12:26.312Z,23.16
2019-04-21T17:15:31.511Z,23.05
2019-04-21T17:18:04.268Z,22.78
2019-04-21T17:20:35.947Z,22.59
2019-04-21T17:22:59.656Z,22.55
2019-04-21T17:25:39.287Z,22.15
2019-04-21T17:28:15.478Z,22.03
2019-04-21T17:30:51.035Z,21.93
2019-04-21T17:33:25.658Z,21.90
2019-04-21T17:36:11.418Z,21.74
2019-04-21T17:38:48.142Z,21.69
2019-04-21T17:41:30.627Z,21.56
2019-04-21T17:44:00.367Z,21.47
2019-04-21T17:46:45.838Z,21.35
2019-04-21T17:49:13.187Z,21.30
2019-04-21T17:52:05.590Z,21.23
2019-04-21T17:57:49.481Z,21.12
2019-04-21T18:01:40.814Z,20.92
2019-04-21T18:04:14.826Z,20.68
2019-04-21T18:07:31.554Z,20.48
2019-04-21T18:13:01.385Z,20.21
2019-04-21T18:15:55.801Z,20.08
2019-04-21T18:18:20.933Z,19.94
2019-04-21T18:21:41.335Z,19.85
2019-04-21T18:30:33.976Z,19.77
2019-04-21T18:39:34.025Z,19.36
2019-04-21T18:42:45.445Z,19.22
2019-04-21T18:48:41.181Z,19.15
2019-04-21T18:51:40.295Z,19.02
2019-04-21T18:57:00.961Z,18.85
2019-04-21T18:59:39.837Z,18.82
2019-04-21T19:02:17.514Z,18.75
2019-04-21T19:04:50.090Z,18.67
2019-04-21T19:07:45.562Z,18.50
2019-04-21T19:13:27.920Z,18.21
2019-04-21T19:18:50.598Z,18.20
2019-04-21T19:21:24.585Z,18.08
2019-04-21T19:24:10.829Z,17.94
2019-04-21T19:26:49.706Z,17.89
2019-04-21T19:29:24.355Z,17.89
2019-04-21T19:32:45.255Z,17.86
2019-04-21T19:34:57.434Z,17.69
2019-04-21T19:37:34.026Z,17.59
2019-04-21T19:43:23.141Z,17.54
2019-04-21T19:46:14.106Z,17.38
2019-04-21T19:49:05.499Z,17.21
2019-04-21T19:51:32.760Z,17.11
2019-04-21T19:54:01.347Z,17.22
2019-04-21T19:56:43.014Z,17.20
2019-04-21T19:59:23.615Z,17.26
2019-04-21T20:02:02.734Z,17.31
2019-04-21T20:04:43.960Z,17.20
2019-04-21T20:07:27.531Z,17.23
2019-04-21T20:10:15.474Z,17.24
2019-04-21T20:12:47.440Z,17.22
2019-04-21T20:16:01.513Z,17.35
2019-04-21T20:18:29.550Z,17.12
2019-04-21T20:20:58.059Z,16.91
2019-04-21T20:23:40.623Z,16.85
2019-04-21T20:26:15.538Z,16.74
2019-04-21T20:29:00.065Z,16.65
2019-04-21T20:31:40.934Z,16.52
2019-04-21T20:34:26.905Z,16.42
2019-04-21T20:37:02.022Z,16.28
2019-04-21T20:39:23.201Z,16.24
2019-04-21T20:42:09.726Z,16.17
2019-04-21T20:47:54.250Z,15.95
2019-04-21T20:50:37.941Z,15.89
2019-04-21T20:53:25.144Z,15.70
2019-04-21T20:55:57.476Z,15.64
2019-04-21T20:58:37.603Z,15.57
2019-04-21T21:03:57.934Z,15.33
2019-04-21T21:06:32.948Z,15.21
2019-04-21T21:09:09.111Z,15.16
2019-04-21T21:12:12.874Z,15.02
2019-04-21T21:14:40.650Z,14.89
2019-04-21T21:17:25.400Z,14.83
2019-04-21T21:20:00.328Z,14.82
2019-04-21T21:22:29.396Z,14.71
2019-04-21T21:25:11.319Z,14.67
2019-04-21T21:27:41.829Z,14.54
2019-04-21T21:31:04.164Z,14.44
2019-04-21T21:33:50.753Z,14.33
2019-04-21T21:36:31.849Z,14.43
2019-04-21T21:39:01.267Z,14.41
2019-04-21T21:41:31.786Z,14.41
2019-04-21T21:44:23.108Z,14.22
2019-04-21T21:47:19.161Z,14.35
2019-04-21T21:49:54.084Z,14.35
2019-04-21T21:52:30.050Z,14.20
2019-04-21T21:54:52.227Z,13.94
2019-04-21T21:57:22.854Z,13.94
2019-04-21T22:03:46.262Z,14.01
2019-04-21T22:06:18.255Z,14.01
2019-04-21T22:08:48.314Z,13.95
2019-04-21T22:11:24.279Z,13.86
2019-04-21T22:14:01.920Z,13.81
2019-04-21T22:17:16.141Z,13.71
2019-04-21T22:20:08.119Z,13.63
2019-04-21T22:22:36.575Z,13.63
2019-04-21T22:25:07.893Z,13.57
2019-04-21T22:27:54.185Z,13.51
2019-04-21T22:30:38.472Z,13.53
2019-04-21T22:33:14.521Z,13.53
2019-04-21T22:36:09.947Z,13.40
2019-04-21T22:38:59.556Z,13.33
2019-04-21T22:41:24.456Z,13.33
2019-04-21T22:43:53.316Z,13.28
2019-04-21T22:46:28.582Z,13.28
2019-04-21T22:49:08.935Z,13.29
2019-04-21T22:51:53.808Z,13.26
2019-04-21T22:54:39.681Z,13.15
2019-04-21T22:57:12.877Z,13.15
2019-04-21T22:59:45.337Z,13.07
2019-04-21T23:05:43.038Z,12.93
2019-04-21T23:08:17.153Z,12.89
2019-04-21T23:11:17.845Z,12.93
2019-04-21T23:14:02.111Z,12.93
2019-04-21T23:16:53.971Z,12.83
2019-04-21T23:19:38.911Z,12.83
2019-04-21T23:25:42.345Z,12.66
2019-04-21T23:28:52.709Z,12.55
2019-04-21T23:31:18.670Z,12.55
2019-04-21T23:33:40.462Z,12.41
2019-04-21T23:36:27.845Z,12.21
2019-04-21T23:38:56.698Z,12.21
2019-04-21T23:41:52.861Z,12.17
2019-04-21T23:44:26.018Z,12.17
2019-04-21T23:47:00.796Z,12.12
2019-04-21T23:49:53.125Z,12.08
2019-04-21T23:52:25.690Z,12.08
2019-04-21T23:54:55.610Z,12.08
2019-04-21T23:57:48.391Z,12.08
